createdAt,value
2022-11-24T00:01:06.572Z,86.10
2022-11-24T00:03:34.452Z,86.20
2022-11-24T00:06:07.420Z,86.20
2022-11-24T00:08:36.968Z,86.40
2022-11-24T00:11:06.141Z,86.70
2022-11-24T00:13:35.194Z,86.50
2022-11-24T00:16:07.954Z,86.70
2022-11-24T00:18:35.830Z,86.40
2022-11-24T00:21:03.560Z,86.50
2022-11-24T00:23:31.202Z,86.70
2022-11-24T00:26:07.359Z,86.80
2022-11-24T00:28:37.073Z,86.80
2022-11-24T00:31:06.888Z,87.00
2022-11-24T00:33:34.670Z,86.90
2022-11-24T00:36:02.371Z,86.40
2022-11-24T00:38:30.096Z,86.70
2022-11-24T00:40:57.799Z,86.50
2022-11-24T00:43:27.008Z,86.40
2022-11-24T00:45:54.933Z,85.50
2022-11-24T00:48:23.273Z,85.70
2022-11-24T00:50:57.866Z,85.80
2022-11-24T00:53:25.642Z,85.40
2022-11-24T00:55:54.232Z,85.30
2022-11-24T00:58:22.270Z,86.00
2022-11-24T01:00:51.560Z,85.60
2022-11-24T01:03:20.386Z,85.50
2022-11-24T01:05:48.266Z,85.90
2022-11-24T01:08:16.119Z,85.60
2022-11-24T01:10:43.933Z,85.40
2022-11-24T01:13:12.430Z,85.80
2022-11-24T01:15:40.703Z,85.60
2022-11-24T01:18:10.627Z,86.00
2022-11-24T01:20:38.426Z,85.40
2022-11-24T01:23:06.115Z,84.90
2022-11-24T01:25:33.807Z,85.20
2022-11-24T01:28:01.499Z,85.20
2022-11-24T01:30:29.301Z,84.90
2022-11-24T01:32:57.123Z,84.90
2022-11-24T01:35:26.163Z,85.00
2022-11-24T01:37:53.846Z,85.40
2022-11-24T01:40:21.894Z,84.70
2022-11-24T01:42:51.515Z,84.30
2022-11-24T01:45:35.805Z,84.90
2022-11-24T01:48:06.316Z,85.10
2022-11-24T01:50:37.311Z,85.10
2022-11-24T01:53:06.133Z,84.70
2022-11-24T01:55:38.462Z,85.00
2022-11-24T01:58:08.990Z,84.60
2022-11-24T02:00:39.281Z,84.70
2022-11-24T02:03:08.377Z,84.50
2022-11-24T02:05:42.065Z,84.30
2022-11-24T02:08:15.889Z,84.50
2022-11-24T02:10:45.254Z,84.70
2022-11-24T02:13:13.887Z,84.60
2022-11-24T02:15:41.656Z,84.50
2022-11-24T02:18:09.757Z,84.40
2022-11-24T02:20:38.923Z,84.50
2022-11-24T02:23:15.148Z,84.60
2022-11-24T02:25:52.773Z,84.80
2022-11-24T02:28:24.686Z,84.90
2022-11-24T02:30:53.732Z,84.60
2022-11-24T02:33:25.086Z,84.60
2022-11-24T02:35:52.889Z,84.50
2022-11-24T02:38:29.633Z,85.20
2022-11-24T02:40:57.459Z,85.30
2022-11-24T02:43:27.162Z,85.30
2022-11-24T02:45:54.916Z,85.40
2022-11-24T02:48:22.594Z,85.30
2022-11-24T02:50:50.369Z,85.00
2022-11-24T02:53:18.174Z,85.30
2022-11-24T02:55:45.903Z,85.10
2022-11-24T02:58:14.746Z,85.30
2022-11-24T03:00:43.706Z,85.40
2022-11-24T03:03:11.580Z,85.10
2022-11-24T03:05:39.498Z,85.30
2022-11-24T03:08:07.298Z,85.50
2022-11-24T03:10:35.010Z,85.70
2022-11-24T03:13:02.798Z,85.80
2022-11-24T03:15:30.575Z,85.20
2022-11-24T03:17:59.726Z,85.60
2022-11-24T03:20:27.535Z,84.90
2022-11-24T03:22:55.252Z,84.90
2022-11-24T03:25:22.950Z,85.20
2022-11-24T03:27:51.066Z,84.90
2022-11-24T03:30:18.871Z,85.00
2022-11-24T03:32:46.536Z,85.10
2022-11-24T03:35:15.622Z,85.00
2022-11-24T03:37:43.500Z,85.10
2022-11-24T03:40:11.745Z,84.90
2022-11-24T03:42:40.331Z,84.50
2022-11-24T03:45:38.106Z,84.60
2022-11-24T03:47:56.942Z,84.20
2022-11-24T03:50:26.102Z,84.00
2022-11-24T03:52:53.919Z,83.70
2022-11-24T03:55:21.606Z,83.80
2022-11-24T03:57:49.322Z,83.80
2022-11-24T04:00:17.975Z,83.20
2022-11-24T04:02:45.729Z,83.30
2022-11-24T04:05:13.507Z,83.10
2022-11-24T04:07:42.686Z,83.00
2022-11-24T04:10:10.609Z,83.00
2022-11-24T04:12:44.408Z,82.60
2022-11-24T04:15:12.845Z,83.10
2022-11-24T04:17:40.874Z,82.80
2022-11-24T04:20:09.778Z,82.50
2022-11-24T04:22:37.475Z,82.70
2022-11-24T04:25:07.846Z,82.80
2022-11-24T04:27:36.595Z,82.70
2022-11-24T04:30:05.451Z,82.90
2022-11-24T04:32:33.150Z,82.80
2022-11-24T04:35:00.828Z,82.40
2022-11-24T04:37:28.558Z,82.40
2022-11-24T04:39:56.505Z,82.30
2022-11-24T04:42:25.488Z,82.70
2022-11-24T04:44:53.166Z,82.60
2022-11-24T04:47:22.406Z,82.40
2022-11-24T04:49:50.783Z,82.30
2022-11-24T04:52:19.754Z,82.90
2022-11-24T04:54:48.079Z,82.40
2022-11-24T04:57:17.974Z,82.10
2022-11-24T04:59:47.247Z,82.20
2022-11-24T05:02:15.033Z,82.50
2022-11-24T05:04:44.797Z,82.50
2022-11-24T05:07:17.998Z,82.30
2022-11-24T05:10:00.665Z,82.50
2022-11-24T05:12:30.993Z,82.80
2022-11-24T05:15:00.780Z,83.10
2022-11-24T05:17:30.616Z,83.10
2022-11-24T05:19:58.562Z,83.20
2022-11-24T05:22:26.866Z,82.90
2022-11-24T05:24:54.623Z,82.60
2022-11-24T05:27:22.399Z,83.30
2022-11-24T05:29:50.119Z,83.10
2022-11-24T05:32:19.112Z,82.70
2022-11-24T05:34:46.859Z,83.20
2022-11-24T05:37:14.668Z,83.00
2022-11-24T05:39:42.404Z,83.30
2022-11-24T05:42:24.549Z,83.60
2022-11-24T05:44:52.631Z,83.30
2022-11-24T05:47:22.434Z,83.90
2022-11-24T05:49:50.501Z,85.30
2022-11-24T05:52:18.412Z,87.80
2022-11-24T05:54:46.221Z,89.20
2022-11-24T05:57:14.397Z,89.50
2022-11-24T05:59:42.130Z,90.50
2022-11-24T06:02:10.167Z,92.00
2022-11-24T06:04:39.326Z,92.70
2022-11-24T06:07:08.787Z,93.10
2022-11-24T06:09:37.755Z,93.60
2022-11-24T06:12:05.827Z,93.20
2022-11-24T06:14:33.856Z,94.20
2022-11-24T06:17:01.946Z,94.70
2022-11-24T06:19:29.949Z,95.30
2022-11-24T06:21:59.215Z,95.20
2022-11-24T06:24:27.139Z,96.00
2022-11-24T06:26:54.907Z,96.10
2022-11-24T06:29:22.794Z,96.30
2022-11-24T06:31:50.599Z,96.50
2022-11-24T06:34:18.429Z,96.80
2022-11-24T06:36:46.964Z,96.50
2022-11-24T06:39:16.086Z,96.70
2022-11-24T06:41:43.790Z,96.80
2022-11-24T06:44:11.600Z,96.80
2022-11-24T06:46:39.292Z,96.80
2022-11-24T06:49:08.757Z,96.80
2022-11-24T06:51:36.527Z,96.80
2022-11-24T06:54:08.050Z,96.80
2022-11-24T06:56:37.137Z,96.80
2022-11-24T06:59:04.847Z,96.80
2022-11-24T07:01:32.879Z,96.80
2022-11-24T07:04:00.928Z,96.80
2022-11-24T07:06:29.011Z,96.80
2022-11-24T07:08:56.790Z,96.80
2022-11-24T07:11:26.534Z,96.80
2022-11-24T07:13:59.916Z,96.80
2022-11-24T07:16:29.519Z,96.80
2022-11-24T07:18:57.288Z,96.70
2022-11-24T07:21:26.336Z,96.80
2022-11-24T07:23:56.044Z,96.70
2022-11-24T07:26:24.674Z,96.40
2022-11-24T07:28:52.445Z,96.80
2022-11-24T07:31:24.914Z,96.80
2022-11-24T07:33:55.578Z,96.80
2022-11-24T07:36:23.814Z,96.80
2022-11-24T07:38:52.102Z,96.80
2022-11-24T07:41:21.130Z,96.70
2022-11-24T07:43:49.458Z,96.80
2022-11-24T07:46:20.053Z,96.80
2022-11-24T07:48:49.373Z,96.80
2022-11-24T07:51:17.789Z,96.80
2022-11-24T07:53:47.084Z,96.80
2022-11-24T07:56:17.692Z,96.80
2022-11-24T07:58:49.700Z,96.80
2022-11-24T08:01:21.848Z,96.10
2022-11-24T08:03:51.070Z,96.80
2022-11-24T08:06:26.139Z,96.70
2022-11-24T08:08:56.982Z,96.70
2022-11-24T08:11:25.558Z,96.50
2022-11-24T08:13:53.310Z,96.70
2022-11-24T08:16:21.704Z,96.80
2022-11-24T08:18:53.166Z,96.80
2022-11-24T08:21:22.992Z,96.80
2022-11-24T08:23:50.834Z,96.40
2022-11-24T08:26:19.204Z,96.40
2022-11-24T08:28:48.348Z,96.20
2022-11-24T08:31:18.520Z,95.80
2022-11-24T08:33:46.774Z,96.00
2022-11-24T08:36:17.595Z,96.60
2022-11-24T08:38:45.994Z,96.60
2022-11-24T08:41:15.760Z,96.50
2022-11-24T08:43:43.838Z,96.50
2022-11-24T08:46:14.076Z,96.40
2022-11-24T08:48:41.872Z,96.20
2022-11-24T08:51:15.319Z,96.00
2022-11-24T08:53:44.661Z,95.90
2022-11-24T08:56:13.883Z,95.70
2022-11-24T08:58:42.357Z,96.10
2022-11-24T09:01:13.021Z,96.30
2022-11-24T09:03:48.261Z,96.40
2022-11-24T09:06:19.237Z,96.50
2022-11-24T09:08:48.456Z,96.60
2022-11-24T09:11:18.076Z,96.50
2022-11-24T09:13:46.214Z,96.10
2022-11-24T09:16:15.656Z,96.50
2022-11-24T09:18:46.200Z,96.60
2022-11-24T09:21:16.147Z,96.80
2022-11-24T09:23:49.233Z,96.70
2022-11-24T09:26:19.361Z,96.20
2022-11-24T09:28:48.095Z,96.50
2022-11-24T09:31:18.577Z,96.50
2022-11-24T09:33:47.167Z,96.70
2022-11-24T09:36:15.622Z,96.80
2022-11-24T09:38:44.394Z,96.80
2022-11-24T09:41:26.191Z,96.80
2022-11-24T09:44:01.318Z,96.80
2022-11-24T09:46:33.822Z,96.60
2022-11-24T09:49:03.661Z,96.70
2022-11-24T09:51:33.460Z,96.80
2022-11-24T09:54:06.515Z,96.60
2022-11-24T09:56:40.976Z,96.70
2022-11-24T09:59:15.528Z,96.80
2022-11-24T10:01:45.272Z,96.40
2022-11-24T10:04:18.891Z,96.70
2022-11-24T10:06:53.037Z,96.80
2022-11-24T10:09:33.111Z,96.80
2022-11-24T10:12:14.871Z,96.80
2022-11-24T10:14:59.108Z,96.80
2022-11-24T10:17:42.195Z,96.80
2022-11-24T10:20:19.305Z,96.80
2022-11-24T10:22:58.139Z,96.80
2022-11-24T10:25:31.586Z,96.00
2022-11-24T10:28:04.450Z,96.00
2022-11-24T10:30:32.411Z,95.50
2022-11-24T10:33:04.992Z,95.40
2022-11-24T10:35:38.973Z,95.60
2022-11-24T10:38:17.352Z,95.50
2022-11-24T10:40:57.134Z,95.00
2022-11-24T10:43:29.661Z,94.00
2022-11-24T10:46:07.595Z,94.40
2022-11-24T10:48:44.147Z,93.60
2022-11-24T10:51:37.577Z,92.30
2022-11-24T10:54:11.588Z,92.10
2022-11-24T10:56:41.169Z,93.00
2022-11-24T10:59:30.411Z,93.90
2022-11-24T11:01:58.439Z,92.40
2022-11-24T11:04:28.574Z,92.10
2022-11-24T11:07:18.394Z,93.00
2022-11-24T11:09:46.466Z,92.60
2022-11-24T11:12:42.693Z,92.70
2022-11-24T11:15:27.978Z,92.20
2022-11-24T11:17:58.975Z,92.40
2022-11-24T11:20:30.462Z,91.30
2022-11-24T11:23:00.184Z,90.20
2022-11-24T11:25:32.750Z,91.00
2022-11-24T11:28:20.319Z,90.80
2022-11-24T11:34:07.311Z,90.50
2022-11-24T11:36:41.492Z,89.70
2022-11-24T11:39:22.992Z,90.70
2022-11-24T11:41:56.419Z,90.00
2022-11-24T11:44:33.280Z,90.00
2022-11-24T11:47:14.982Z,89.70
2022-11-24T11:49:42.937Z,89.80
2022-11-24T11:52:30.419Z,90.00
2022-11-24T11:55:18.880Z,89.30
2022-11-24T11:57:56.281Z,90.00
2022-11-24T12:00:24.504Z,91.30
2022-11-24T12:03:17.103Z,90.40
2022-11-24T12:05:51.856Z,90.20
2022-11-24T12:08:44.005Z,90.60
2022-11-24T12:11:27.376Z,90.50
2022-11-24T12:14:07.266Z,90.10
2022-11-24T12:16:45.378Z,88.70
2022-11-24T12:19:28.869Z,89.40
2022-11-24T12:22:06.834Z,88.70
2022-11-24T12:24:45.318Z,89.30
2022-11-24T12:27:25.041Z,90.30
2022-11-24T12:30:15.971Z,88.60
2022-11-24T12:33:05.875Z,89.20
2022-11-24T12:35:43.283Z,86.50
2022-11-24T12:38:25.810Z,86.80
2022-11-24T12:41:40.466Z,87.30
2022-11-24T12:44:16.547Z,86.50
2022-11-24T12:46:54.644Z,87.70
2022-11-24T12:49:31.422Z,89.10
2022-11-24T12:52:05.377Z,88.10
2022-11-24T12:54:39.853Z,87.60
2022-11-24T12:57:13.149Z,87.90
2022-11-24T12:59:45.923Z,88.20
2022-11-24T13:02:24.912Z,87.90
2022-11-24T13:05:03.243Z,87.30
2022-11-24T13:07:43.258Z,87.60
2022-11-24T13:10:54.210Z,86.70
2022-11-24T13:13:18.586Z,86.30
2022-11-24T13:18:58.009Z,86.90
2022-11-24T13:21:47.109Z,86.80
2022-11-24T13:24:25.991Z,83.70
2022-11-24T13:26:56.387Z,82.10
2022-11-24T13:29:34.229Z,84.20
2022-11-24T13:32:31.743Z,84.40
2022-11-24T13:35:05.630Z,84.40
2022-11-24T13:37:51.459Z,83.40
2022-11-24T13:40:45.824Z,81.80
2022-11-24T13:43:24.274Z,82.20
2022-11-24T13:45:53.736Z,84.60
2022-11-24T13:48:51.390Z,85.40
2022-11-24T13:51:24.307Z,82.80
2022-11-24T13:53:55.048Z,82.60
2022-11-24T13:56:27.230Z,83.80
2022-11-24T13:58:57.331Z,84.40
2022-11-24T14:01:26.482Z,84.90
2022-11-24T14:06:55.753Z,84.40
2022-11-24T14:09:27.798Z,82.50
2022-11-24T14:12:00.842Z,83.40
2022-11-24T14:14:29.111Z,80.60
2022-11-24T14:17:15.953Z,82.00
2022-11-24T14:19:44.892Z,82.20
2022-11-24T14:22:16.973Z,82.00
2022-11-24T14:24:46.096Z,82.40
2022-11-24T14:27:18.100Z,82.40
2022-11-24T14:29:54.874Z,82.90
2022-11-24T14:32:23.290Z,83.40
2022-11-24T14:34:52.040Z,81.80
2022-11-24T14:37:20.201Z,80.20
2022-11-24T14:39:48.383Z,80.90
2022-11-24T14:42:21.073Z,80.70
2022-11-24T14:44:53.770Z,81.00
2022-11-24T14:47:30.892Z,80.30
2022-11-24T14:50:09.480Z,80.60
2022-11-24T14:52:44.034Z,81.00
2022-11-24T14:55:25.249Z,80.90
2022-11-24T14:57:54.559Z,82.40
2022-11-24T15:00:28.395Z,81.40
2022-11-24T15:03:08.686Z,81.70
2022-11-24T15:05:54.270Z,82.80
2022-11-24T15:08:23.294Z,82.80
2022-11-24T15:10:58.427Z,83.00
2022-11-24T15:13:28.202Z,83.30
2022-11-24T15:16:02.733Z,83.70
2022-11-24T15:18:40.937Z,84.10
2022-11-24T15:21:11.785Z,84.90
2022-11-24T15:23:45.580Z,86.70
2022-11-24T15:26:36.720Z,87.60
2022-11-24T15:29:09.632Z,88.00
2022-11-24T15:31:37.997Z,88.20
2022-11-24T15:34:05.826Z,88.60
2022-11-24T15:36:33.711Z,88.80
2022-11-24T15:39:01.406Z,89.60
2022-11-24T15:41:31.515Z,90.20
2022-11-24T15:43:59.828Z,90.70
2022-11-24T15:46:29.986Z,90.80
2022-11-24T15:48:58.080Z,90.90
2022-11-24T15:51:26.967Z,91.10
2022-11-24T15:54:00.661Z,91.50
2022-11-24T15:56:32.325Z,91.80
2022-11-24T15:59:00.605Z,92.30
2022-11-24T16:01:36.633Z,92.50
2022-11-24T16:04:04.741Z,92.80
2022-11-24T16:06:32.880Z,93.00
2022-11-24T16:09:00.781Z,92.90
2022-11-24T16:11:28.645Z,93.00
2022-11-24T16:13:56.334Z,93.10
2022-11-24T16:16:25.465Z,93.30
2022-11-24T16:18:54.834Z,93.30
2022-11-24T16:21:25.025Z,93.50
2022-11-24T16:23:52.867Z,93.60
2022-11-24T16:26:20.667Z,93.60
2022-11-24T16:28:48.329Z,93.40
2022-11-24T16:31:16.704Z,93.60
2022-11-24T16:33:46.195Z,93.70
2022-11-24T16:36:15.323Z,93.50
2022-11-24T16:38:43.087Z,93.80
2022-11-24T16:41:10.920Z,94.10
2022-11-24T16:43:39.041Z,94.60
2022-11-24T16:46:18.420Z,94.80
2022-11-24T16:48:47.494Z,94.90
2022-11-24T16:51:17.843Z,95.00
2022-11-24T16:53:45.839Z,94.90
2022-11-24T16:56:14.593Z,94.90
2022-11-24T16:58:42.881Z,95.00
2022-11-24T17:01:13.259Z,95.30
2022-11-24T17:03:41.091Z,95.20
2022-11-24T17:06:11.176Z,95.20
2022-11-24T17:08:41.235Z,95.20
2022-11-24T17:11:09.946Z,95.30
2022-11-24T17:13:38.195Z,95.40
2022-11-24T17:16:07.049Z,95.30
2022-11-24T17:18:35.681Z,95.20
2022-11-24T17:21:09.251Z,94.90
2022-11-24T17:23:38.120Z,94.70
2022-11-24T17:26:08.832Z,94.50
2022-11-24T17:28:37.202Z,94.20
2022-11-24T17:31:08.915Z,94.30
2022-11-24T17:33:37.025Z,94.40
2022-11-24T17:36:05.814Z,94.40
2022-11-24T17:38:34.946Z,94.30
2022-11-24T17:41:02.918Z,94.40
2022-11-24T17:43:31.974Z,94.30
2022-11-24T17:46:01.882Z,94.20
2022-11-24T17:48:30.523Z,94.10
2022-11-24T17:51:00.889Z,94.40
2022-11-24T17:53:28.728Z,94.80
2022-11-24T17:55:59.230Z,95.20
2022-11-24T17:58:28.421Z,95.30
2022-11-24T18:00:58.109Z,95.40
2022-11-24T18:03:28.538Z,95.40
2022-11-24T18:05:56.390Z,95.60
2022-11-24T18:08:24.338Z,95.20
2022-11-24T18:10:52.025Z,94.80
2022-11-24T18:13:41.032Z,94.60
2022-11-24T18:16:10.851Z,94.60
2022-11-24T18:18:40.359Z,94.80
2022-11-24T18:21:12.706Z,94.90
2022-11-24T18:23:40.730Z,94.80
2022-11-24T18:26:09.067Z,94.60
2022-11-24T18:28:36.879Z,94.70
2022-11-24T18:31:07.119Z,94.80
2022-11-24T18:33:38.859Z,95.10
2022-11-24T18:36:07.554Z,95.40
2022-11-24T18:38:36.706Z,96.00
2022-11-24T18:41:05.957Z,96.00
2022-11-24T18:43:35.834Z,96.10
2022-11-24T18:46:05.509Z,96.30
2022-11-24T18:48:33.298Z,96.40
2022-11-24T18:51:03.166Z,96.70
2022-11-24T18:53:31.218Z,96.70
2022-11-24T18:56:00.542Z,96.60
2022-11-24T18:58:29.922Z,96.40
2022-11-24T19:01:07.028Z,96.30
2022-11-24T19:03:35.036Z,96.00
2022-11-24T19:06:05.208Z,95.60
2022-11-24T19:08:35.545Z,95.80
2022-11-24T19:11:03.563Z,96.00
2022-11-24T19:13:31.411Z,96.10
2022-11-24T19:16:00.220Z,96.10
2022-11-24T19:18:30.207Z,96.20
2022-11-24T19:20:58.167Z,95.80
2022-11-24T19:23:27.121Z,95.30
2022-11-24T19:25:54.819Z,95.10
2022-11-24T19:28:22.753Z,95.10
2022-11-24T19:30:50.465Z,95.40
2022-11-24T19:33:18.734Z,95.50
2022-11-24T19:35:46.458Z,95.90
2022-11-24T19:38:15.308Z,96.70
2022-11-24T19:40:44.520Z,96.80
2022-11-24T19:43:12.188Z,96.80
2022-11-24T19:45:44.169Z,96.80
2022-11-24T19:48:11.990Z,96.80
2022-11-24T19:50:39.763Z,96.80
2022-11-24T19:53:07.471Z,96.80
2022-11-24T19:55:35.179Z,96.80
2022-11-24T19:58:04.199Z,96.80
2022-11-24T20:00:32.279Z,96.80
2022-11-24T20:03:01.647Z,96.80
2022-11-24T20:05:29.749Z,96.80
2022-11-24T20:07:57.878Z,96.80
2022-11-24T20:10:26.857Z,96.80
2022-11-24T20:12:54.732Z,96.80
2022-11-24T20:15:23.967Z,96.80
2022-11-24T20:17:51.691Z,96.80
2022-11-24T20:20:19.672Z,96.80
2022-11-24T20:22:47.580Z,96.80
2022-11-24T20:25:15.930Z,96.80
2022-11-24T20:27:44.535Z,96.80
2022-11-24T20:30:12.912Z,96.80
2022-11-24T20:32:42.067Z,96.80
2022-11-24T20:35:16.599Z,96.80
2022-11-24T20:37:46.243Z,96.80
2022-11-24T20:40:14.274Z,96.80
2022-11-24T20:42:42.041Z,96.80
2022-11-24T20:45:10.136Z,96.80
2022-11-24T20:47:37.922Z,96.80
2022-11-24T20:50:07.407Z,96.80
2022-11-24T20:52:35.107Z,96.50
2022-11-24T20:55:03.909Z,96.50
2022-11-24T20:57:31.752Z,96.10
2022-11-24T20:59:59.475Z,96.20
2022-11-24T21:02:27.303Z,96.50
2022-11-24T21:04:55.420Z,96.80
2022-11-24T21:07:24.596Z,96.80
2022-11-24T21:09:52.403Z,96.80
2022-11-24T21:12:20.071Z,96.80
2022-11-24T21:14:47.748Z,96.80
2022-11-24T21:17:16.396Z,96.80
2022-11-24T21:19:44.079Z,96.80
2022-11-24T21:22:11.723Z,96.80
2022-11-24T21:24:40.758Z,96.80
2022-11-24T21:27:08.432Z,96.70
2022-11-24T21:29:36.090Z,96.80
2022-11-24T21:32:04.310Z,96.80
2022-11-24T21:34:35.676Z,96.80
2022-11-24T21:37:03.483Z,96.80
2022-11-24T21:39:31.257Z,96.80
2022-11-24T21:42:00.374Z,96.80
2022-11-24T21:44:30.778Z,96.80
2022-11-24T21:46:58.518Z,96.80
2022-11-24T21:49:26.183Z,96.80
2022-11-24T21:51:55.694Z,96.80
2022-11-24T21:54:23.802Z,96.80
2022-11-24T21:56:51.520Z,96.80
2022-11-24T21:59:20.831Z,96.80
2022-11-24T22:01:48.537Z,96.40
2022-11-24T22:04:16.402Z,96.80
2022-11-24T22:06:44.987Z,96.80
2022-11-24T22:09:17.762Z,96.80
2022-11-24T22:11:46.067Z,96.80
2022-11-24T22:14:13.889Z,96.80
2022-11-24T22:16:42.921Z,96.80
2022-11-24T22:19:10.798Z,96.80
2022-11-24T22:21:38.571Z,96.80
2022-11-24T22:24:06.574Z,96.80
2022-11-24T22:26:34.318Z,96.80
2022-11-24T22:29:02.015Z,96.80
2022-11-24T22:31:31.493Z,96.80
2022-11-24T22:34:01.222Z,96.80
2022-11-24T22:36:30.728Z,96.80
2022-11-24T22:39:02.878Z,96.80
2022-11-24T22:41:31.514Z,96.80
2022-11-24T22:43:59.259Z,96.80
2022-11-24T22:46:28.914Z,96.80
2022-11-24T22:49:00.780Z,96.80
2022-11-24T22:51:31.112Z,96.80
2022-11-24T22:54:01.198Z,96.80
2022-11-24T22:56:32.005Z,96.80
2022-11-24T22:59:00.290Z,96.80
2022-11-24T23:01:29.998Z,96.80
2022-11-24T23:03:58.102Z,96.80
2022-11-24T23:06:28.903Z,96.80
2022-11-24T23:08:58.177Z,96.80
2022-11-24T23:11:34.904Z,96.80
2022-11-24T23:14:05.157Z,96.80
2022-11-24T23:16:32.937Z,96.80
2022-11-24T23:19:00.666Z,96.80
2022-11-24T23:21:31.808Z,96.80
2022-11-24T23:24:01.235Z,96.80
2022-11-24T23:26:30.874Z,96.80
2022-11-24T23:28:58.637Z,96.30
2022-11-24T23:31:28.684Z,96.60
2022-11-24T23:33:56.690Z,96.80
2022-11-24T23:36:24.390Z,96.80
2022-11-24T23:38:53.779Z,96.80
2022-11-24T23:41:23.746Z,96.80
2022-11-24T23:43:52.344Z,96.80
2022-11-24T23:46:22.453Z,96.80
2022-11-24T23:48:51.543Z,96.80
2022-11-24T23:51:21.181Z,96.80
2022-11-24T23:53:49.645Z,96.80
2022-11-24T23:56:20.343Z,96.80
2022-11-24T23:58:48.692Z,96.80
